sensor_id;sensor_type;location;lat;lon;timestamp;P1;durP1;ratioP1;P2;durP2;ratioP2
18857;SDS011;9558;50.178;8.370;2022-09-09T00:01:10;0.47;;;0.32;;
18857;SDS011;9558;50.178;8.370;2022-09-09T00:03:50;0.47;;;0.47;;
18857;SDS011;9558;50.178;8.370;2022-09-09T00:06:21;1.95;;;0.70;;
18857;SDS011;9558;50.178;8.370;2022-09-09T00:08:54;0.95;;;0.28;;
18857;SDS011;9558;50.178;8.370;2022-09-09T00:11:29;0.65;;;0.65;;
18857;SDS011;9558;50.178;8.370;2022-09-09T00:14:02;0.40;;;0.40;;
18857;SDS011;9558;50.178;8.370;2022-09-09T00:16:39;0.77;;;0.50;;
18857;SDS011;9558;50.178;8.370;2022-09-09T00:19:12;0.52;;;0.52;;
18857;SDS011;9558;50.178;8.370;2022-09-09T00:21:47;0.50;;;0.50;;
18857;SDS011;9558;50.178;8.370;2022-09-09T00:24:26;0.88;;;0.45;;
18857;SDS011;9558;50.178;8.370;2022-09-09T00:26:59;0.57;;;0.40;;
18857;SDS011;9558;50.178;8.370;2022-09-09T00:29:33;0.40;;;0.40;;
18857;SDS011;9558;50.178;8.370;2022-09-09T00:32:09;0.85;;;0.40;;
18857;SDS011;9558;50.178;8.370;2022-09-09T00:34:39;0.50;;;0.30;;
18857;SDS011;9558;50.178;8.370;2022-09-09T00:37:10;0.93;;;0.40;;
18857;SDS011;9558;50.178;8.370;2022-09-09T00:39:37;0.30;;;0.30;;
18857;SDS011;9558;50.178;8.370;2022-09-09T00:42:12;0.15;;;0.15;;
18857;SDS011;9558;50.178;8.370;2022-09-09T00:44:46;0.40;;;0.40;;
18857;SDS011;9558;50.178;8.370;2022-09-09T00:47:24;0.40;;;0.40;;
18857;SDS011;9558;50.178;8.370;2022-09-09T00:50:08;0.40;;;0.40;;
18857;SDS011;9558;50.178;8.370;2022-09-09T00:52:44;0.77;;;0.30;;
18857;SDS011;9558;50.178;8.370;2022-09-09T00:55:21;0.30;;;0.30;;
18857;SDS011;9558;50.178;8.370;2022-09-09T00:57:55;0.40;;;0.40;;
18857;SDS011;9558;50.178;8.370;2022-09-09T01:00:22;0.52;;;0.30;;
18857;SDS011;9558;50.178;8.370;2022-09-09T01:03:01;0.30;;;0.30;;
18857;SDS011;9558;50.178;8.370;2022-09-09T01:05:38;1.95;;;0.30;;
18857;SDS011;9558;50.178;8.370;2022-09-09T01:08:13;0.40;;;0.40;;
18857;SDS011;9558;50.178;8.370;2022-09-09T01:10:53;2.00;;;0.47;;
18857;SDS011;9558;50.178;8.370;2022-09-09T01:13:22;1.42;;;0.68;;
18857;SDS011;9558;50.178;8.370;2022-09-09T01:15:51;0.40;;;0.40;;
18857;SDS011;9558;50.178;8.370;2022-09-09T01:18:20;0.60;;;0.30;;
18857;SDS011;9558;50.178;8.370;2022-09-09T01:20:53;1.42;;;0.50;;
18857;SDS011;9558;50.178;8.370;2022-09-09T01:23:30;0.30;;;0.30;;
18857;SDS011;9558;50.178;8.370;2022-09-09T01:26:20;0.50;;;0.35;;
18857;SDS011;9558;50.178;8.370;2022-09-09T01:28:51;0.28;;;0.28;;
18857;SDS011;9558;50.178;8.370;2022-09-09T01:31:19;1.83;;;0.70;;
18857;SDS011;9558;50.178;8.370;2022-09-09T01:33:47;3.75;;;0.40;;
18857;SDS011;9558;50.178;8.370;2022-09-09T01:36:16;0.73;;;0.57;;
18857;SDS011;9558;50.178;8.370;2022-09-09T01:38:47;0.82;;;0.73;;
18857;SDS011;9558;50.178;8.370;2022-09-09T01:41:14;0.93;;;0.50;;
18857;SDS011;9558;50.178;8.370;2022-09-09T01:43:42;0.65;;;0.30;;
18857;SDS011;9558;50.178;8.370;2022-09-09T01:46:08;0.40;;;0.40;;
18857;SDS011;9558;50.178;8.370;2022-09-09T01:48:36;0.70;;;0.30;;
18857;SDS011;9558;50.178;8.370;2022-09-09T01:51:03;0.45;;;0.38;;
18857;SDS011;9558;50.178;8.370;2022-09-09T01:53:29;0.77;;;0.30;;
18857;SDS011;9558;50.178;8.370;2022-09-09T01:55:59;0.50;;;0.50;;
18857;SDS011;9558;50.178;8.370;2022-09-09T01:58:36;1.00;;;0.40;;
18857;SDS011;9558;50.178;8.370;2022-09-09T02:01:15;1.95;;;0.32;;
18857;SDS011;9558;50.178;8.370;2022-09-09T02:03:49;0.38;;;0.32;;
18857;SDS011;9558;50.178;8.370;2022-09-09T02:06:22;0.40;;;0.40;;
18857;SDS011;9558;50.178;8.370;2022-09-09T02:08:54;1.65;;;0.50;;
18857;SDS011;9558;50.178;8.370;2022-09-09T02:11:22;0.70;;;0.50;;
18857;SDS011;9558;50.178;8.370;2022-09-09T02:13:52;1.35;;;0.50;;
18857;SDS011;9558;50.178;8.370;2022-09-09T02:16:23;0.30;;;0.30;;
18857;SDS011;9558;50.178;8.370;2022-09-09T02:18:53;0.68;;;0.60;;
18857;SDS011;9558;50.178;8.370;2022-09-09T02:21:24;0.88;;;0.75;;
18857;SDS011;9558;50.178;8.370;2022-09-09T02:23:53;0.70;;;0.55;;
18857;SDS011;9558;50.178;8.370;2022-09-09T02:26:23;0.90;;;0.40;;
18857;SDS011;9558;50.178;8.370;2022-09-09T02:28:50;3.78;;;0.43;;
18857;SDS011;9558;50.178;8.370;2022-09-09T02:31:21;0.52;;;0.30;;
18857;SDS011;9558;50.178;8.370;2022-09-09T02:33:51;0.63;;;0.20;;
18857;SDS011;9558;50.178;8.370;2022-09-09T02:36:21;0.50;;;0.40;;
18857;SDS011;9558;50.178;8.370;2022-09-09T02:38:49;0.60;;;0.40;;
18857;SDS011;9558;50.178;8.370;2022-09-09T02:41:19;0.80;;;0.30;;
18857;SDS011;9558;50.178;8.370;2022-09-09T02:43:49;0.60;;;0.30;;
18857;SDS011;9558;50.178;8.370;2022-09-09T02:46:22;0.30;;;0.30;;
18857;SDS011;9558;50.178;8.370;2022-09-09T02:48:59;1.08;;;0.30;;
18857;SDS011;9558;50.178;8.370;2022-09-09T02:51:30;0.28;;;0.28;;
18857;SDS011;9558;50.178;8.370;2022-09-09T02:56:35;2.55;;;0.63;;
18857;SDS011;9558;50.178;8.370;2022-09-09T02:59:07;3.30;;;0.32;;
18857;SDS011;9558;50.178;8.370;2022-09-09T03:01:35;1.15;;;0.50;;
18857;SDS011;9558;50.178;8.370;2022-09-09T03:04:02;0.60;;;0.30;;
18857;SDS011;9558;50.178;8.370;2022-09-09T03:06:30;0.57;;;0.20;;
18857;SDS011;9558;50.178;8.370;2022-09-09T03:08:56;1.73;;;0.50;;
18857;SDS011;9558;50.178;8.370;2022-09-09T03:11:25;0.22;;;0.22;;
18857;SDS011;9558;50.178;8.370;2022-09-09T03:13:52;0.57;;;0.50;;
18857;SDS011;9558;50.178;8.370;2022-09-09T03:16:21;0.55;;;0.55;;
18857;SDS011;9558;50.178;8.370;2022-09-09T03:18:48;0.30;;;0.30;;
18857;SDS011;9558;50.178;8.370;2022-09-09T03:21:15;0.38;;;0.30;;
18857;SDS011;9558;50.178;8.370;2022-09-09T03:23:41;0.50;;;0.28;;
18857;SDS011;9558;50.178;8.370;2022-09-09T03:26:10;1.35;;;0.22;;
18857;SDS011;9558;50.178;8.370;2022-09-09T03:28:36;0.38;;;0.38;;
18857;SDS011;9558;50.178;8.370;2022-09-09T03:31:03;0.40;;;0.30;;
18857;SDS011;9558;50.178;8.370;2022-09-09T03:33:31;3.65;;;0.43;;
18857;SDS011;9558;50.178;8.370;2022-09-09T03:36:00;0.30;;;0.30;;
18857;SDS011;9558;50.178;8.370;2022-09-09T03:38:27;0.75;;;0.50;;
18857;SDS011;9558;50.178;8.370;2022-09-09T03:40:54;0.68;;;0.30;;
18857;SDS011;9558;50.178;8.370;2022-09-09T03:43:23;0.40;;;0.40;;
18857;SDS011;9558;50.178;8.370;2022-09-09T03:45:50;0.45;;;0.43;;
18857;SDS011;9558;50.178;8.370;2022-09-09T03:53:12;1.10;;;0.30;;
18857;SDS011;9558;50.178;8.370;2022-09-09T03:55:38;0.30;;;0.30;;
18857;SDS011;9558;50.178;8.370;2022-09-09T03:58:06;0.93;;;0.32;;
18857;SDS011;9558;50.178;8.370;2022-09-09T04:00:33;0.22;;;0.22;;
18857;SDS011;9558;50.178;8.370;2022-09-09T04:02:59;0.43;;;0.30;;
18857;SDS011;9558;50.178;8.370;2022-09-09T04:05:26;4.57;;;0.55;;
18857;SDS011;9558;50.178;8.370;2022-09-09T04:07:52;0.20;;;0.20;;
18857;SDS011;9558;50.178;8.370;2022-09-09T04:10:20;1.52;;;0.30;;
18857;SDS011;9558;50.178;8.370;2022-09-09T04:12:47;0.28;;;0.28;;
18857;SDS011;9558;50.178;8.370;2022-09-09T04:15:13;0.38;;;0.30;;
18857;SDS011;9558;50.178;8.370;2022-09-09T04:17:40;3.80;;;0.50;;
18857;SDS011;9558;50.178;8.370;2022-09-09T04:20:07;1.17;;;0.30;;
18857;SDS011;9558;50.178;8.370;2022-09-09T04:22:36;0.40;;;0.28;;
18857;SDS011;9558;50.178;8.370;2022-09-09T04:25:04;1.05;;;0.38;;
18857;SDS011;9558;50.178;8.370;2022-09-09T04:27:32;0.40;;;0.40;;
18857;SDS011;9558;50.178;8.370;2022-09-09T04:29:59;0.45;;;0.40;;
18857;SDS011;9558;50.178;8.370;2022-09-09T04:32:26;1.00;;;0.30;;
18857;SDS011;9558;50.178;8.370;2022-09-09T04:34:52;0.43;;;0.30;;
18857;SDS011;9558;50.178;8.370;2022-09-09T04:37:19;0.43;;;0.30;;
18857;SDS011;9558;50.178;8.370;2022-09-09T04:39:45;0.65;;;0.50;;
18857;SDS011;9558;50.178;8.370;2022-09-09T04:42:12;2.25;;;0.40;;
18857;SDS011;9558;50.178;8.370;2022-09-09T04:44:40;1.63;;;0.38;;
18857;SDS011;9558;50.178;8.370;2022-09-09T04:47:06;0.20;;;0.20;;
18857;SDS011;9558;50.178;8.370;2022-09-09T04:49:33;0.15;;;0.15;;
18857;SDS011;9558;50.178;8.370;2022-09-09T04:51:59;0.45;;;0.40;;
18857;SDS011;9558;50.178;8.370;2022-09-09T04:54:26;0.32;;;0.32;;
18857;SDS011;9558;50.178;8.370;2022-09-09T04:56:52;2.92;;;0.60;;
18857;SDS011;9558;50.178;8.370;2022-09-09T05:01:48;0.93;;;0.40;;
18857;SDS011;9558;50.178;8.370;2022-09-09T05:04:15;1.65;;;0.45;;
18857;SDS011;9558;50.178;8.370;2022-09-09T05:06:41;4.60;;;0.55;;
18857;SDS011;9558;50.178;8.370;2022-09-09T05:09:08;0.20;;;0.20;;
18857;SDS011;9558;50.178;8.370;2022-09-09T05:11:35;0.85;;;0.47;;
18857;SDS011;9558;50.178;8.370;2022-09-09T05:14:03;0.38;;;0.38;;
18857;SDS011;9558;50.178;8.370;2022-09-09T05:16:30;0.20;;;0.20;;
18857;SDS011;9558;50.178;8.370;2022-09-09T05:18:58;0.35;;;0.20;;
18857;SDS011;9558;50.178;8.370;2022-09-09T05:21:25;0.30;;;0.30;;
18857;SDS011;9558;50.178;8.370;2022-09-09T05:23:53;0.57;;;0.40;;
18857;SDS011;9558;50.178;8.370;2022-09-09T05:26:20;2.20;;;0.40;;
18857;SDS011;9558;50.178;8.370;2022-09-09T05:28:49;0.93;;;0.40;;
18857;SDS011;9558;50.178;8.370;2022-09-09T05:31:16;0.32;;;0.30;;
18857;SDS011;9558;50.178;8.370;2022-09-09T05:33:44;0.98;;;0.30;;
18857;SDS011;9558;50.178;8.370;2022-09-09T05:36:13;2.40;;;0.55;;
18857;SDS011;9558;50.178;8.370;2022-09-09T05:38:41;0.38;;;0.38;;
18857;SDS011;9558;50.178;8.370;2022-09-09T05:41:09;0.40;;;0.40;;
18857;SDS011;9558;50.178;8.370;2022-09-09T05:43:37;2.25;;;0.50;;
18857;SDS011;9558;50.178;8.370;2022-09-09T05:46:04;1.92;;;0.52;;
18857;SDS011;9558;50.178;8.370;2022-09-09T05:48:32;1.38;;;0.50;;
18857;SDS011;9558;50.178;8.370;2022-09-09T05:51:00;0.40;;;0.40;;
18857;SDS011;9558;50.178;8.370;2022-09-09T05:53:29;0.40;;;0.40;;
18857;SDS011;9558;50.178;8.370;2022-09-09T05:55:59;0.75;;;0.47;;
18857;SDS011;9558;50.178;8.370;2022-09-09T05:58:28;2.67;;;0.70;;
18857;SDS011;9558;50.178;8.370;2022-09-09T06:01:00;2.08;;;0.65;;
18857;SDS011;9558;50.178;8.370;2022-09-09T06:03:27;0.52;;;0.40;;
18857;SDS011;9558;50.178;8.370;2022-09-09T06:05:58;0.88;;;0.45;;
18857;SDS011;9558;50.178;8.370;2022-09-09T06:08:25;1.02;;;0.40;;
18857;SDS011;9558;50.178;8.370;2022-09-09T06:10:53;0.47;;;0.40;;
18857;SDS011;9558;50.178;8.370;2022-09-09T06:13:21;0.68;;;0.45;;
18857;SDS011;9558;50.178;8.370;2022-09-09T06:15:49;4.47;;;0.60;;
18857;SDS011;9558;50.178;8.370;2022-09-09T06:18:17;0.50;;;0.40;;
18857;SDS011;9558;50.178;8.370;2022-09-09T06:20:52;0.20;;;0.20;;
18857;SDS011;9558;50.178;8.370;2022-09-09T06:23:20;2.40;;;0.40;;
18857;SDS011;9558;50.178;8.370;2022-09-09T06:25:46;0.32;;;0.25;;
18857;SDS011;9558;50.178;8.370;2022-09-09T06:28:15;2.17;;;0.77;;
18857;SDS011;9558;50.178;8.370;2022-09-09T06:30:42;0.90;;;0.50;;
18857;SDS011;9558;50.178;8.370;2022-09-09T06:33:09;2.38;;;0.60;;
18857;SDS011;9558;50.178;8.370;2022-09-09T06:35:36;0.98;;;0.40;;
18857;SDS011;9558;50.178;8.370;2022-09-09T06:38:02;1.70;;;0.40;;
18857;SDS011;9558;50.178;8.370;2022-09-09T06:40:29;0.28;;;0.28;;
18857;SDS011;9558;50.178;8.370;2022-09-09T06:42:58;2.25;;;0.45;;
18857;SDS011;9558;50.178;8.370;2022-09-09T06:45:27;0.43;;;0.40;;
18857;SDS011;9558;50.178;8.370;2022-09-09T06:47:54;0.47;;;0.47;;
18857;SDS011;9558;50.178;8.370;2022-09-09T06:50:21;1.45;;;0.50;;
18857;SDS011;9558;50.178;8.370;2022-09-09T06:52:47;0.80;;;0.45;;
18857;SDS011;9558;50.178;8.370;2022-09-09T06:55:14;0.82;;;0.50;;
18857;SDS011;9558;50.178;8.370;2022-09-09T06:57:43;1.52;;;0.65;;
18857;SDS011;9558;50.178;8.370;2022-09-09T07:00:10;0.63;;;0.40;;
18857;SDS011;9558;50.178;8.370;2022-09-09T07:02:40;0.40;;;0.40;;
18857;SDS011;9558;50.178;8.370;2022-09-09T07:05:07;0.60;;;0.60;;
18857;SDS011;9558;50.178;8.370;2022-09-09T07:07:34;0.50;;;0.50;;
18857;SDS011;9558;50.178;8.370;2022-09-09T07:10:02;0.55;;;0.55;;
18857;SDS011;9558;50.178;8.370;2022-09-09T07:12:29;0.50;;;0.50;;
18857;SDS011;9558;50.178;8.370;2022-09-09T07:14:55;1.63;;;0.57;;
18857;SDS011;9558;50.178;8.370;2022-09-09T07:17:22;0.70;;;0.70;;
18857;SDS011;9558;50.178;8.370;2022-09-09T07:19:50;1.55;;;0.60;;
18857;SDS011;9558;50.178;8.370;2022-09-09T07:22:17;0.50;;;0.50;;
18857;SDS011;9558;50.178;8.370;2022-09-09T07:24:45;1.45;;;0.65;;
18857;SDS011;9558;50.178;8.370;2022-09-09T07:27:11;2.08;;;1.00;;
18857;SDS011;9558;50.178;8.370;2022-09-09T07:29:38;2.67;;;0.95;;
18857;SDS011;9558;50.178;8.370;2022-09-09T07:32:04;1.85;;;1.10;;
18857;SDS011;9558;50.178;8.370;2022-09-09T07:34:31;1.08;;;0.70;;
18857;SDS011;9558;50.178;8.370;2022-09-09T07:39:26;1.65;;;0.80;;
18857;SDS011;9558;50.178;8.370;2022-09-09T07:41:52;2.15;;;0.70;;
18857;SDS011;9558;50.178;8.370;2022-09-09T07:44:21;0.63;;;0.63;;
18857;SDS011;9558;50.178;8.370;2022-09-09T07:46:49;1.58;;;0.70;;
18857;SDS011;9558;50.178;8.370;2022-09-09T07:49:16;1.15;;;0.77;;
18857;SDS011;9558;50.178;8.370;2022-09-09T07:51:44;0.50;;;0.50;;
18857;SDS011;9558;50.178;8.370;2022-09-09T07:54:15;3.60;;;0.55;;
18857;SDS011;9558;50.178;8.370;2022-09-09T07:56:45;1.25;;;0.63;;
18857;SDS011;9558;50.178;8.370;2022-09-09T07:59:12;0.63;;;0.50;;
18857;SDS011;9558;50.178;8.370;2022-09-09T08:04:06;0.77;;;0.75;;
18857;SDS011;9558;50.178;8.370;2022-09-09T08:06:35;0.40;;;0.40;;
18857;SDS011;9558;50.178;8.370;2022-09-09T08:09:03;3.40;;;0.73;;
18857;SDS011;9558;50.178;8.370;2022-09-09T08:13:58;0.60;;;0.50;;
18857;SDS011;9558;50.178;8.370;2022-09-09T08:18:53;0.52;;;0.52;;
18857;SDS011;9558;50.178;8.370;2022-09-09T08:21:20;0.45;;;0.45;;
18857;SDS011;9558;50.178;8.370;2022-09-09T08:23:49;2.28;;;1.13;;
18857;SDS011;9558;50.178;8.370;2022-09-09T08:26:17;1.67;;;0.80;;
18857;SDS011;9558;50.178;8.370;2022-09-09T08:28:48;1.00;;;0.70;;
18857;SDS011;9558;50.178;8.370;2022-09-09T08:31:17;1.73;;;0.70;;
18857;SDS011;9558;50.178;8.370;2022-09-09T08:33:46;1.05;;;0.52;;
18857;SDS011;9558;50.178;8.370;2022-09-09T08:36:14;1.13;;;0.90;;
18857;SDS011;9558;50.178;8.370;2022-09-09T08:38:42;2.00;;;0.60;;
18857;SDS011;9558;50.178;8.370;2022-09-09T08:44:04;4.05;;;0.80;;
18857;SDS011;9558;50.178;8.370;2022-09-09T08:46:35;2.22;;;0.80;;
18857;SDS011;9558;50.178;8.370;2022-09-09T08:49:14;0.70;;;0.70;;
18857;SDS011;9558;50.178;8.370;2022-09-09T08:51:53;1.48;;;0.90;;
18857;SDS011;9558;50.178;8.370;2022-09-09T08:54:22;1.05;;;0.88;;
18857;SDS011;9558;50.178;8.370;2022-09-09T08:56:49;1.30;;;0.70;;
18857;SDS011;9558;50.178;8.370;2022-09-09T08:59:18;1.77;;;0.73;;
18857;SDS011;9558;50.178;8.370;2022-09-09T09:01:51;1.20;;;0.85;;
18857;SDS011;9558;50.178;8.370;2022-09-09T09:04:32;1.88;;;1.67;;
18857;SDS011;9558;50.178;8.370;2022-09-09T09:07:11;4.72;;;0.90;;
18857;SDS011;9558;50.178;8.370;2022-09-09T09:09:48;1.27;;;1.00;;
18857;SDS011;9558;50.178;8.370;2022-09-09T09:12:24;1.70;;;0.80;;
18857;SDS011;9558;50.178;8.370;2022-09-09T09:14:55;0.98;;;0.82;;
18857;SDS011;9558;50.178;8.370;2022-09-09T09:17:23;0.65;;;0.65;;
18857;SDS011;9558;50.178;8.370;2022-09-09T09:19:53;1.02;;;0.80;;
18857;SDS011;9558;50.178;8.370;2022-09-09T09:22:21;1.00;;;0.88;;
18857;SDS011;9558;50.178;8.370;2022-09-09T09:24:51;2.45;;;0.75;;
18857;SDS011;9558;50.178;8.370;2022-09-09T09:27:21;0.93;;;0.70;;
18857;SDS011;9558;50.178;8.370;2022-09-09T09:29:58;1.15;;;0.70;;
18857;SDS011;9558;50.178;8.370;2022-09-09T09:32:27;1.02;;;0.70;;
18857;SDS011;9558;50.178;8.370;2022-09-09T09:34:59;2.08;;;0.90;;
18857;SDS011;9558;50.178;8.370;2022-09-09T09:37:30;1.27;;;0.70;;
18857;SDS011;9558;50.178;8.370;2022-09-09T09:40:07;1.38;;;0.77;;
18857;SDS011;9558;50.178;8.370;2022-09-09T09:42:35;0.70;;;0.70;;
18857;SDS011;9558;50.178;8.370;2022-09-09T09:45:12;0.55;;;0.55;;
18857;SDS011;9558;50.178;8.370;2022-09-09T09:47:43;1.00;;;0.88;;
18857;SDS011;9558;50.178;8.370;2022-09-09T09:50:15;0.63;;;0.50;;
18857;SDS011;9558;50.178;8.370;2022-09-09T09:52:51;4.03;;;0.63;;
18857;SDS011;9558;50.178;8.370;2022-09-09T09:55:20;1.65;;;0.57;;
18857;SDS011;9558;50.178;8.370;2022-09-09T09:57:47;0.50;;;0.50;;
18857;SDS011;9558;50.178;8.370;2022-09-09T10:00:16;0.40;;;0.40;;
18857;SDS011;9558;50.178;8.370;2022-09-09T10:02:45;2.50;;;0.88;;
18857;SDS011;9558;50.178;8.370;2022-09-09T10:05:13;1.13;;;0.90;;
18857;SDS011;9558;50.178;8.370;2022-09-09T10:07:42;0.70;;;0.60;;
18857;SDS011;9558;50.178;8.370;2022-09-09T10:10:12;0.70;;;0.50;;
18857;SDS011;9558;50.178;8.370;2022-09-09T10:12:44;0.93;;;0.70;;
18857;SDS011;9558;50.178;8.370;2022-09-09T10:15:24;0.40;;;0.40;;
18857;SDS011;9558;50.178;8.370;2022-09-09T10:18:10;1.85;;;0.40;;
18857;SDS011;9558;50.178;8.370;2022-09-09T10:20:50;0.70;;;0.40;;
18857;SDS011;9558;50.178;8.370;2022-09-09T10:23:28;4.82;;;0.52;;
18857;SDS011;9558;50.178;8.370;2022-09-09T10:26:10;0.70;;;0.68;;
18857;SDS011;9558;50.178;8.370;2022-09-09T10:31:55;0.63;;;0.50;;
18857;SDS011;9558;50.178;8.370;2022-09-09T10:34:38;2.65;;;0.60;;
18857;SDS011;9558;50.178;8.370;2022-09-09T10:37:26;1.58;;;0.50;;
18857;SDS011;9558;50.178;8.370;2022-09-09T10:40:04;0.95;;;0.50;;
18857;SDS011;9558;50.178;8.370;2022-09-09T10:42:45;0.43;;;0.35;;
18857;SDS011;9558;50.178;8.370;2022-09-09T10:45:15;0.45;;;0.45;;
18857;SDS011;9558;50.178;8.370;2022-09-09T10:48:02;1.35;;;0.47;;
18857;SDS011;9558;50.178;8.370;2022-09-09T10:50:40;0.95;;;0.40;;
18857;SDS011;9558;50.178;8.370;2022-09-09T10:53:18;0.85;;;0.40;;
18857;SDS011;9558;50.178;8.370;2022-09-09T10:55:56;0.50;;;0.30;;
18857;SDS011;9558;50.178;8.370;2022-09-09T10:58:28;1.27;;;0.35;;
18857;SDS011;9558;50.178;8.370;2022-09-09T11:01:02;1.10;;;0.57;;
18857;SDS011;9558;50.178;8.370;2022-09-09T11:03:37;0.30;;;0.30;;
18857;SDS011;9558;50.178;8.370;2022-09-09T11:06:08;0.40;;;0.40;;
18857;SDS011;9558;50.178;8.370;2022-09-09T11:08:40;0.88;;;0.47;;
18857;SDS011;9558;50.178;8.370;2022-09-09T11:11:09;0.10;;;0.10;;
18857;SDS011;9558;50.178;8.370;2022-09-09T11:13:42;0.45;;;0.40;;
18857;SDS011;9558;50.178;8.370;2022-09-09T11:16:19;0.90;;;0.43;;
18857;SDS011;9558;50.178;8.370;2022-09-09T11:18:55;0.90;;;0.40;;
18857;SDS011;9558;50.178;8.370;2022-09-09T11:21:27;0.57;;;0.20;;
18857;SDS011;9558;50.178;8.370;2022-09-09T11:24:03;0.15;;;0.15;;
18857;SDS011;9558;50.178;8.370;2022-09-09T11:26:36;0.40;;;0.22;;
18857;SDS011;9558;50.178;8.370;2022-09-09T11:29:16;0.90;;;0.20;;
18857;SDS011;9558;50.178;8.370;2022-09-09T11:31:57;0.47;;;0.30;;
18857;SDS011;9558;50.178;8.370;2022-09-09T11:34:39;0.52;;;0.25;;
18857;SDS011;9558;50.178;8.370;2022-09-09T11:37:20;0.70;;;0.25;;
18857;SDS011;9558;50.178;8.370;2022-09-09T11:42:46;1.83;;;0.45;;
18857;SDS011;9558;50.178;8.370;2022-09-09T11:45:22;0.10;;;0.10;;
18857;SDS011;9558;50.178;8.370;2022-09-09T11:47:54;0.70;;;0.20;;
18857;SDS011;9558;50.178;8.370;2022-09-09T11:50:36;0.30;;;0.15;;
18857;SDS011;9558;50.178;8.370;2022-09-09T11:53:17;0.47;;;0.30;;
18857;SDS011;9558;50.178;8.370;2022-09-09T11:56:00;0.77;;;0.30;;
18857;SDS011;9558;50.178;8.370;2022-09-09T11:58:28;1.42;;;0.47;;
18857;SDS011;9558;50.178;8.370;2022-09-09T12:00:59;0.20;;;0.20;;
18857;SDS011;9558;50.178;8.370;2022-09-09T12:03:33;1.38;;;0.25;;
18857;SDS011;9558;50.178;8.370;2022-09-09T12:06:12;0.22;;;0.20;;
18857;SDS011;9558;50.178;8.370;2022-09-09T12:08:43;0.88;;;0.20;;
18857;SDS011;9558;50.178;8.370;2022-09-09T12:11:23;0.50;;;0.30;;
18857;SDS011;9558;50.178;8.370;2022-09-09T12:13:52;0.20;;;0.20;;
18857;SDS011;9558;50.178;8.370;2022-09-09T12:16:27;0.13;;;0.10;;
18857;SDS011;9558;50.178;8.370;2022-09-09T12:19:05;0.32;;;0.30;;
18857;SDS011;9558;50.178;8.370;2022-09-09T12:21:42;0.65;;;0.38;;
18857;SDS011;9558;50.178;8.370;2022-09-09T12:24:15;0.63;;;0.22;;
18857;SDS011;9558;50.178;8.370;2022-09-09T12:26:51;2.30;;;0.20;;
18857;SDS011;9558;50.178;8.370;2022-09-09T12:29:25;1.65;;;0.35;;
18857;SDS011;9558;50.178;8.370;2022-09-09T12:32:00;0.47;;;0.15;;
18857;SDS011;9558;50.178;8.370;2022-09-09T12:34:35;0.90;;;0.25;;
18857;SDS011;9558;50.178;8.370;2022-09-09T12:39:54;0.17;;;0.10;;
18857;SDS011;9558;50.178;8.370;2022-09-09T12:42:23;0.20;;;0.20;;
18857;SDS011;9558;50.178;8.370;2022-09-09T12:44:50;1.58;;;0.20;;
18857;SDS011;9558;50.178;8.370;2022-09-09T12:47:22;0.93;;;0.30;;
18857;SDS011;9558;50.178;8.370;2022-09-09T12:49:55;0.30;;;0.20;;
18857;SDS011;9558;50.178;8.370;2022-09-09T12:52:24;1.20;;;0.35;;
18857;SDS011;9558;50.178;8.370;2022-09-09T12:54:56;1.52;;;0.28;;
18857;SDS011;9558;50.178;8.370;2022-09-09T12:57:25;0.28;;;0.10;;
18857;SDS011;9558;50.178;8.370;2022-09-09T13:02:45;0.65;;;0.20;;
18857;SDS011;9558;50.178;8.370;2022-09-09T13:05:17;1.17;;;0.20;;
18857;SDS011;9558;50.178;8.370;2022-09-09T13:07:47;0.40;;;0.30;;
18857;SDS011;9558;50.178;8.370;2022-09-09T13:10:15;0.90;;;0.10;;
18857;SDS011;9558;50.178;8.370;2022-09-09T13:12:51;1.45;;;0.40;;
18857;SDS011;9558;50.178;8.370;2022-09-09T13:15:19;0.20;;;0.20;;
18857;SDS011;9558;50.178;8.370;2022-09-09T13:17:51;0.08;;;0.00;;
18857;SDS011;9558;50.178;8.370;2022-09-09T13:20:20;0.00;;;0.00;;
18857;SDS011;9558;50.178;8.370;2022-09-09T13:22:50;0.28;;;0.15;;
18857;SDS011;9558;50.178;8.370;2022-09-09T13:25:20;0.20;;;0.20;;
18857;SDS011;9558;50.178;8.370;2022-09-09T13:27:58;0.10;;;0.10;;
18857;SDS011;9558;50.178;8.370;2022-09-09T13:30:28;0.13;;;0.10;;
18857;SDS011;9558;50.178;8.370;2022-09-09T13:33:04;0.20;;;0.20;;
18857;SDS011;9558;50.178;8.370;2022-09-09T13:35:33;0.10;;;0.10;;
18857;SDS011;9558;50.178;8.370;2022-09-09T13:38:07;0.32;;;0.15;;
18857;SDS011;9558;50.178;8.370;2022-09-09T13:40:35;0.10;;;0.10;;
18857;SDS011;9558;50.178;8.370;2022-09-09T13:43:03;0.68;;;0.10;;
18857;SDS011;9558;50.178;8.370;2022-09-09T13:47:59;0.55;;;0.10;;
18857;SDS011;9558;50.178;8.370;2022-09-09T13:50:35;2.92;;;0.30;;
18857;SDS011;9558;50.178;8.370;2022-09-09T13:53:02;0.20;;;0.20;;
18857;SDS011;9558;50.178;8.370;2022-09-09T13:55:30;1.17;;;0.55;;
18857;SDS011;9558;50.178;8.370;2022-09-09T13:57:57;0.10;;;0.10;;
18857;SDS011;9558;50.178;8.370;2022-09-09T14:00:25;0.10;;;0.10;;
18857;SDS011;9558;50.178;8.370;2022-09-09T14:02:54;0.20;;;0.20;;
18857;SDS011;9558;50.178;8.370;2022-09-09T14:05:21;0.20;;;0.20;;
18857;SDS011;9558;50.178;8.370;2022-09-09T14:10:15;0.35;;;0.10;;
18857;SDS011;9558;50.178;8.370;2022-09-09T14:15:11;0.50;;;0.20;;
18857;SDS011;9558;50.178;8.370;2022-09-09T14:17:39;1.00;;;0.30;;
18857;SDS011;9558;50.178;8.370;2022-09-09T14:20:06;0.10;;;0.10;;
18857;SDS011;9558;50.178;8.370;2022-09-09T14:22:34;2.00;;;0.13;;
18857;SDS011;9558;50.178;8.370;2022-09-09T14:25:01;0.22;;;0.10;;
18857;SDS011;9558;50.178;8.370;2022-09-09T14:27:27;0.73;;;0.20;;
18857;SDS011;9558;50.178;8.370;2022-09-09T14:29:56;2.53;;;0.32;;
18857;SDS011;9558;50.178;8.370;2022-09-09T14:32:24;0.32;;;0.10;;
18857;SDS011;9558;50.178;8.370;2022-09-09T14:34:51;1.85;;;0.35;;
18857;SDS011;9558;50.178;8.370;2022-09-09T14:37:18;0.80;;;0.35;;
18857;SDS011;9558;50.178;8.370;2022-09-09T14:39:45;0.38;;;0.17;;
18857;SDS011;9558;50.178;8.370;2022-09-09T14:42:12;0.93;;;0.32;;
18857;SDS011;9558;50.178;8.370;2022-09-09T14:44:39;1.67;;;0.10;;
18857;SDS011;9558;50.178;8.370;2022-09-09T14:47:08;0.40;;;0.13;;
18857;SDS011;9558;50.178;8.370;2022-09-09T14:49:35;0.47;;;0.10;;
18857;SDS011;9558;50.178;8.370;2022-09-09T14:52:02;0.63;;;0.20;;
18857;SDS011;9558;50.178;8.370;2022-09-09T14:54:29;0.32;;;0.10;;
18857;SDS011;9558;50.178;8.370;2022-09-09T14:56:55;0.25;;;0.15;;
18857;SDS011;9558;50.178;8.370;2022-09-09T14:59:22;0.35;;;0.30;;
18857;SDS011;9558;50.178;8.370;2022-09-09T15:01:49;0.20;;;0.10;;
18857;SDS011;9558;50.178;8.370;2022-09-09T15:04:17;0.20;;;0.10;;
18857;SDS011;9558;50.178;8.370;2022-09-09T15:06:44;0.10;;;0.10;;
18857;SDS011;9558;50.178;8.370;2022-09-09T15:09:15;1.35;;;0.20;;
18857;SDS011;9558;50.178;8.370;2022-09-09T15:11:41;2.45;;;0.13;;
18857;SDS011;9558;50.178;8.370;2022-09-09T15:14:09;1.00;;;0.17;;
18857;SDS011;9558;50.178;8.370;2022-09-09T15:16:37;0.32;;;0.13;;
18857;SDS011;9558;50.178;8.370;2022-09-09T15:19:04;0.22;;;0.13;;
18857;SDS011;9558;50.178;8.370;2022-09-09T15:21:33;0.50;;;0.20;;
18857;SDS011;9558;50.178;8.370;2022-09-09T15:24:01;2.13;;;0.32;;
18857;SDS011;9558;50.178;8.370;2022-09-09T15:26:27;0.08;;;0.00;;
18857;SDS011;9558;50.178;8.370;2022-09-09T15:28:55;0.30;;;0.10;;
18857;SDS011;9558;50.178;8.370;2022-09-09T15:31:24;1.50;;;0.30;;
18857;SDS011;9558;50.178;8.370;2022-09-09T15:33:53;0.20;;;0.17;;
18857;SDS011;9558;50.178;8.370;2022-09-09T15:36:26;0.55;;;0.10;;
18857;SDS011;9558;50.178;8.370;2022-09-09T15:38:55;0.30;;;0.20;;
18857;SDS011;9558;50.178;8.370;2022-09-09T15:41:22;0.38;;;0.20;;
18857;SDS011;9558;50.178;8.370;2022-09-09T15:43:50;0.10;;;0.10;;
18857;SDS011;9558;50.178;8.370;2022-09-09T15:46:25;0.20;;;0.10;;
18857;SDS011;9558;50.178;8.370;2022-09-09T15:48:58;0.08;;;0.08;;
18857;SDS011;9558;50.178;8.370;2022-09-09T15:51:29;0.52;;;0.52;;
18857;SDS011;9558;50.178;8.370;2022-09-09T15:56:24;0.75;;;0.20;;
18857;SDS011;9558;50.178;8.370;2022-09-09T15:58:53;0.20;;;0.20;;
18857;SDS011;9558;50.178;8.370;2022-09-09T16:01:23;0.20;;;0.20;;
18857;SDS011;9558;50.178;8.370;2022-09-09T16:03:50;0.20;;;0.20;;